PKWA TAF

83.1 °F / 28.4 °C
ENE at 14 MPH
78%
75.9°F / 24.4 °C
29.88" (1011 mb)
10 mile(s)
clear
2017.09.23 1020 UTC

PKWA TAF

2017/09/23 06:58
TAF PKWA 230538Z 2306/2406 06008KT P6SM VCSH FEW018 SCT050